createdAt,value
2018-07-04T00:01:59.161Z,19.10
2018-07-04T00:04:45.996Z,19.00
2018-07-04T00:07:32.351Z,19.30
2018-07-04T00:10:18.588Z,19.10
2018-07-04T00:13:05.125Z,19.40
2018-07-04T00:15:52.008Z,19.40
2018-07-04T00:18:39.067Z,19.10
2018-07-04T00:21:25.920Z,19.20
2018-07-04T00:24:12.725Z,19.30
2018-07-04T00:26:59.674Z,19.30
2018-07-04T00:29:46.114Z,19.10
2018-07-04T00:32:32.627Z,18.80
2018-07-04T00:35:18.875Z,18.60
2018-07-04T00:38:06.401Z,18.70
2018-07-04T00:40:53.077Z,18.50
2018-07-04T00:43:40.025Z,18.60
2018-07-04T00:46:31.868Z,18.60
2018-07-04T00:49:18.112Z,18.60
2018-07-04T00:52:04.484Z,18.60
2018-07-04T00:54:51.088Z,19.00
2018-07-04T00:57:37.625Z,19.60
2018-07-04T01:00:24.517Z,20.20
2018-07-04T01:03:11.358Z,20.40
2018-07-04T01:05:58.252Z,20.00
2018-07-04T01:08:44.636Z,19.60
2018-07-04T01:11:33.104Z,19.80
2018-07-04T01:14:19.452Z,19.60
2018-07-04T01:17:06.205Z,19.70
2018-07-04T01:19:53.133Z,19.70
2018-07-04T01:22:39.626Z,20.20
2018-07-04T01:25:27.191Z,19.30
2018-07-04T01:28:13.909Z,19.10
2018-07-04T01:31:00.456Z,19.00
2018-07-04T01:33:46.758Z,19.00
2018-07-04T01:36:33.206Z,19.20
2018-07-04T01:39:19.384Z,19.30
2018-07-04T01:42:06.052Z,18.90
2018-07-04T01:44:52.417Z,19.30
2018-07-04T01:47:39.810Z,19.20
2018-07-04T01:50:28.260Z,19.50
2018-07-04T01:53:14.916Z,19.50
2018-07-04T01:56:01.575Z,19.00
2018-07-04T01:58:48.015Z,18.80
2018-07-04T02:01:36.196Z,18.70
2018-07-04T02:04:22.924Z,18.60
2018-07-04T02:07:11.538Z,18.60
2018-07-04T02:09:58.476Z,18.60
2018-07-04T02:12:45.899Z,18.50
2018-07-04T02:15:33.649Z,18.70
2018-07-04T02:18:20.105Z,19.50
2018-07-04T02:21:10.608Z,19.20
2018-07-04T02:24:02.658Z,19.80
2018-07-04T02:26:49.990Z,19.20
2018-07-04T02:32:36.024Z,20.20
2018-07-04T02:35:44.044Z,19.40
2018-07-04T02:41:35.288Z,19.60
2018-07-04T02:47:34.001Z,20.50
2018-07-04T02:53:19.063Z,19.90
2018-07-04T02:56:15.319Z,19.40
2018-07-04T02:59:24.211Z,19.60
2018-07-04T03:02:17.525Z,20.10
2018-07-04T03:05:17.058Z,19.40
2018-07-04T03:08:17.015Z,19.20
2018-07-04T03:11:16.484Z,19.20
2018-07-04T03:20:47.082Z,20.00
2018-07-04T03:26:34.160Z,18.30
2018-07-04T03:29:28.392Z,18.20
2018-07-04T03:32:18.095Z,18.20
2018-07-04T03:35:06.894Z,18.40
2018-07-04T03:38:03.722Z,18.90
2018-07-04T03:40:54.716Z,19.40
2018-07-04T03:43:47.612Z,19.60
2018-07-04T03:46:39.135Z,19.00
2018-07-04T03:49:33.981Z,18.70
2018-07-04T03:52:26.463Z,18.90
2018-07-04T03:55:19.007Z,19.60
2018-07-04T03:58:08.506Z,19.90
2018-07-04T04:01:01.324Z,19.90
2018-07-04T04:03:48.090Z,20.00
2018-07-04T04:06:35.061Z,20.00
2018-07-04T04:51:59.740Z,19.80
2018-07-04T04:54:46.341Z,20.10
2018-07-04T04:57:32.992Z,20.10
2018-07-04T05:00:12.965Z,20.20
2018-07-04T05:03:03.794Z,19.80
2018-07-04T05:05:50.564Z,19.90
2018-07-04T05:08:38.773Z,19.30
2018-07-04T05:11:24.971Z,19.00
2018-07-04T05:14:11.822Z,18.90
2018-07-04T05:16:58.529Z,19.00
2018-07-04T05:19:51.588Z,19.70
2018-07-04T05:22:39.464Z,19.70
2018-07-04T05:25:25.752Z,20.00
2018-07-04T05:28:13.591Z,20.10
2018-07-04T05:31:00.970Z,20.20
2018-07-04T05:33:48.729Z,20.40
2018-07-04T05:36:35.958Z,20.40
2018-07-04T05:39:22.561Z,20.50
2018-07-04T05:42:10.230Z,20.10
2018-07-04T05:44:56.662Z,20.30
2018-07-04T05:47:43.299Z,20.50
2018-07-04T05:53:27.934Z,20.40
2018-07-04T05:56:16.950Z,20.40
2018-07-04T05:59:09.497Z,20.40
2018-07-04T06:01:58.370Z,20.30
2018-07-04T06:04:50.051Z,20.00
2018-07-04T06:07:40.709Z,19.90
2018-07-04T06:10:33.405Z,19.90
2018-07-04T06:22:17.229Z,20.40
2018-07-04T06:25:04.581Z,21.10
2018-07-04T06:27:56.532Z,21.10
2018-07-04T06:30:43.683Z,21.00
2018-07-04T06:33:43.712Z,20.90
2018-07-04T06:39:26.976Z,20.80
2018-07-04T06:41:54.993Z,21.10
2018-07-04T06:44:24.336Z,21.20
2018-07-04T06:46:54.251Z,21.10
2018-07-04T06:49:24.037Z,21.10
2018-07-04T06:51:54.529Z,21.30
2018-07-04T06:54:23.787Z,21.10
2018-07-04T06:56:55.125Z,21.10
2018-07-04T06:59:24.301Z,21.20
2018-07-04T07:01:54.845Z,21.20
2018-07-04T07:04:41.044Z,21.10
2018-07-04T07:07:31.521Z,21.20
2018-07-04T07:10:18.540Z,21.20
2018-07-04T07:13:05.278Z,21.20
2018-07-04T07:15:52.407Z,21.50
2018-07-04T07:18:39.450Z,21.50
2018-07-04T07:21:25.895Z,21.50
2018-07-04T07:24:13.591Z,21.60
2018-07-04T07:27:00.741Z,21.80
2018-07-04T07:29:49.679Z,21.90
2018-07-04T07:32:37.442Z,22.00
2018-07-04T07:35:24.473Z,22.00
2018-07-04T07:38:10.599Z,22.10
2018-07-04T07:40:58.999Z,22.00
2018-07-04T07:43:47.030Z,22.10
2018-07-04T07:46:36.707Z,22.20
2018-07-04T07:49:23.777Z,22.20
2018-07-04T07:52:10.051Z,22.40
2018-07-04T07:55:01.444Z,22.40
2018-07-04T07:57:49.027Z,22.40
2018-07-04T08:00:36.788Z,22.50
2018-07-04T08:03:27.532Z,22.70
2018-07-04T08:06:16.373Z,22.80
2018-07-04T08:09:05.811Z,22.90
2018-07-04T08:11:52.935Z,23.00
2018-07-04T08:14:39.465Z,23.20
2018-07-04T08:17:26.416Z,23.30
2018-07-04T08:20:14.178Z,23.40
2018-07-04T08:23:03.997Z,23.50
2018-07-04T08:25:52.118Z,23.90
2018-07-04T08:28:39.705Z,24.00
2018-07-04T08:31:33.696Z,24.20
2018-07-04T08:34:23.976Z,24.50
2018-07-04T08:37:11.846Z,24.70
2018-07-04T08:40:15.759Z,24.90
2018-07-04T08:43:06.911Z,25.10
2018-07-04T08:45:55.159Z,25.20
2018-07-04T08:48:42.821Z,25.20
2018-07-04T08:51:39.087Z,25.40
2018-07-04T08:54:27.814Z,25.70
2018-07-04T08:57:23.110Z,25.90
2018-07-04T09:00:11.245Z,26.30
2018-07-04T09:03:06.241Z,26.30
2018-07-04T09:05:54.409Z,26.50
2018-07-04T09:08:42.451Z,26.60
2018-07-04T09:14:35.207Z,27.00
2018-07-04T09:17:24.889Z,27.00
2018-07-04T09:20:11.133Z,27.20
2018-07-04T09:23:02.503Z,27.30
2018-07-04T09:25:53.558Z,27.60
2018-07-04T09:28:39.904Z,27.70
2018-07-04T09:31:32.795Z,27.80
2018-07-04T09:34:24.777Z,27.70
2018-07-04T09:37:14.717Z,28.10
2018-07-04T09:40:05.509Z,28.30
2018-07-04T09:42:53.053Z,28.50
2018-07-04T09:45:39.535Z,28.90
2018-07-04T09:48:27.017Z,28.90
2018-07-04T09:51:18.205Z,29.10
2018-07-04T09:54:07.907Z,29.30
2018-07-04T09:59:56.135Z,29.70
2018-07-04T10:02:47.803Z,29.90
2018-07-04T10:05:36.576Z,29.50
2018-07-04T10:08:29.745Z,29.40
2018-07-04T10:11:23.916Z,29.90
2018-07-04T10:14:10.327Z,29.80
2018-07-04T10:16:57.094Z,29.80
2018-07-04T10:19:46.344Z,29.80
2018-07-04T10:22:36.242Z,29.80
2018-07-04T10:37:44.319Z,29.80
2018-07-04T10:40:43.480Z,29.80
2018-07-04T10:47:56.028Z,29.70
2018-07-04T10:50:55.862Z,29.60
2018-07-04T10:53:56.200Z,29.80
2018-07-04T10:56:56.507Z,29.80
2018-07-04T11:03:53.405Z,29.70
2018-07-04T11:15:07.668Z,29.30
2018-07-04T11:18:06.792Z,29.10
2018-07-04T11:21:07.122Z,28.80
2018-07-04T11:24:07.388Z,28.80
2018-07-04T11:30:07.536Z,28.60
2018-07-04T11:33:07.445Z,28.50
2018-07-04T11:36:04.724Z,28.30
2018-07-04T11:39:38.090Z,28.30
2018-07-04T11:42:48.975Z,28.30
2018-07-04T11:45:40.645Z,28.30
2018-07-04T11:51:19.761Z,28.40
2018-07-04T11:53:50.986Z,28.70
2018-07-04T11:59:02.925Z,28.80
2018-07-04T12:01:32.248Z,29.00
2018-07-04T12:04:31.472Z,29.20
2018-07-04T12:07:17.467Z,29.40
2018-07-04T12:09:49.820Z,29.50
2018-07-04T12:12:23.073Z,29.80
2018-07-04T12:17:40.942Z,29.80
2018-07-04T12:20:31.297Z,29.80
2018-07-04T12:25:45.588Z,29.80
2018-07-04T12:41:11.234Z,29.10
2018-07-04T12:43:52.766Z,28.80
2018-07-04T12:46:24.382Z,28.60
2018-07-04T12:51:52.804Z,28.50
2018-07-04T12:57:21.928Z,28.40
2018-07-04T13:40:05.540Z,29.30
2018-07-04T13:43:06.043Z,29.60
2018-07-04T13:46:06.328Z,29.70
2018-07-04T13:49:05.792Z,29.70
2018-07-04T13:52:05.180Z,29.80
2018-07-04T13:55:04.537Z,29.70
2018-07-04T13:58:05.812Z,29.70
2018-07-04T14:01:05.136Z,29.80
2018-07-04T14:04:04.507Z,29.60
2018-07-04T14:10:06.560Z,29.60
2018-07-04T14:13:05.008Z,29.40
2018-07-04T14:16:04.710Z,29.30
2018-07-04T14:19:04.984Z,29.40
2018-07-04T14:37:58.390Z,29.30
2018-07-04T14:40:58.656Z,29.10
2018-07-04T14:43:58.952Z,29.00
2018-07-04T14:50:01.321Z,29.20
2018-07-04T14:52:59.471Z,29.00
2018-07-04T15:08:29.928Z,29.30
2018-07-04T15:24:10.684Z,29.70
2018-07-04T15:27:10.471Z,29.80
2018-07-04T15:30:10.272Z,29.60
2018-07-04T16:00:37.557Z,29.40
2018-07-04T16:11:08.251Z,29.70
2018-07-04T16:14:07.206Z,29.80
2018-07-04T16:20:06.114Z,29.80
2018-07-04T16:23:06.345Z,29.80
2018-07-04T16:29:05.744Z,29.80
2018-07-04T16:32:05.068Z,29.70
2018-07-04T17:00:28.499Z,29.30
2018-07-04T17:03:25.739Z,29.40
2018-07-04T17:11:40.590Z,29.50
2018-07-04T17:14:37.074Z,29.30
2018-07-04T17:27:06.965Z,29.40
2018-07-04T17:42:51.355Z,29.20
2018-07-04T17:45:50.152Z,29.10
2018-07-04T17:48:50.647Z,29.00
2018-07-04T17:51:50.146Z,29.00
2018-07-04T17:54:49.822Z,28.90
2018-07-04T17:57:49.833Z,28.90
2018-07-04T18:00:50.213Z,28.70
2018-07-04T18:03:49.654Z,28.80
2018-07-04T18:06:50.056Z,28.70
2018-07-04T18:09:51.395Z,28.70
2018-07-04T18:12:49.857Z,28.40
2018-07-04T18:15:51.192Z,28.50
2018-07-04T18:37:05.419Z,28.20
2018-07-04T18:40:07.483Z,28.10
2018-07-04T18:43:06.216Z,28.10
2018-07-04T18:49:06.739Z,27.90
2018-07-04T18:52:02.929Z,27.60
2018-07-04T18:55:03.368Z,27.60
2018-07-04T19:08:04.527Z,27.50
2018-07-04T19:11:03.367Z,27.00
2018-07-04T19:14:03.149Z,26.80
2018-07-04T19:17:03.532Z,26.90
2018-07-04T19:20:19.711Z,26.80
2018-07-04T19:23:16.473Z,26.60
2018-07-04T19:26:16.040Z,26.30
2018-07-04T20:00:31.368Z,26.20
2018-07-04T20:03:27.382Z,26.30
2018-07-04T20:19:00.142Z,26.00
2018-07-04T20:21:56.273Z,26.00
2018-07-04T20:37:28.284Z,25.00
2018-07-04T20:54:41.764Z,24.80
2018-07-04T20:57:42.248Z,25.10
2018-07-04T21:00:42.504Z,25.10
2018-07-04T21:03:42.807Z,25.00
2018-07-04T21:09:44.950Z,23.90
2018-07-04T21:39:09.979Z,23.50
2018-07-04T21:44:52.939Z,23.70
2018-07-04T21:47:39.477Z,23.70
2018-07-04T21:50:30.632Z,24.00
2018-07-04T21:53:23.103Z,24.10
2018-07-04T21:59:24.321Z,24.00
2018-07-04T22:21:23.256Z,22.80
2018-07-04T22:24:23.538Z,22.90
2018-07-04T22:27:17.966Z,22.60
2018-07-04T22:30:18.220Z,22.60
2018-07-04T22:33:18.629Z,22.50
2018-07-04T22:36:18.107Z,22.30
2018-07-04T22:39:18.584Z,22.00
2018-07-04T22:54:46.070Z,21.80
2018-07-04T23:11:14.504Z,21.90
2018-07-04T23:43:55.761Z,21.20
2018-07-04T23:54:11.117Z,22.40
